Time;durP1;ratioP1;P1;durP2;ratioP2;P2;SDS_P1;SDS_P2;PMS_P1;PMS_P2;Temp;Humidity;BMP_temperature;BMP_pressure;BME280_temperature;BME280_humidity;BME280_pressure;Samples;Min_cycle;Max_cycle;Signal;HPM_P1;HPM_P2
2023/09/05 00:00:52;;;;;;;;;;;19.20;99.90;;;;;;5054382;28;20336;-71
2023/09/05 00:03:19;;;;;;;;;;;19.10;99.90;;;;;;5051244;28;19932;-71
2023/09/05 00:05:48;;;;;;;;;;;19.10;99.90;;;;;;5051159;28;19924;-71
2023/09/05 00:08:16;;;;;;;;;;;19.10;99.90;;;;;;5054826;28;19931;-72
2023/09/05 00:10:46;;;;;;;;;;;19.00;99.90;;;;;;5057341;28;19977;-71
2023/09/05 00:13:14;;;;;;;;;;;19.10;99.90;;;;;;5055286;28;19928;-71
2023/09/05 00:15:42;;;;;;;;;;;19.10;99.90;;;;;;5059594;28;19932;-71
2023/09/05 00:18:09;;;;;;;;;;;19.20;99.90;;;;;;5058730;28;19924;-71
2023/09/05 00:20:37;;;;;;;;;;;19.10;99.90;;;;;;5060570;28;19925;-70
2023/09/05 00:23:05;;;;;;;;;;;19.00;99.90;;;;;;5049359;28;19931;-70
2023/09/05 00:25:34;;;;;;;;;;;18.90;99.90;;;;;;5056460;28;19928;-70
2023/09/05 00:28:03;;;;;;;;;;;18.90;99.90;;;;;;5052799;28;19929;-70
2023/09/05 00:30:34;;;;;;;;;;;18.90;99.90;;;;;;5060331;28;19928;-71
2023/09/05 00:33:02;;;;;;;;;;;18.80;99.90;;;;;;5055317;28;20302;-70
2023/09/05 00:35:30;;;;;;;;;;;18.80;99.90;;;;;;5061290;28;19960;-71
2023/09/05 00:37:58;;;;;;;;;;;18.90;99.90;;;;;;5055238;28;19955;-71
2023/09/05 00:40:27;;;;;;;;;;;19.00;99.90;;;;;;5056208;28;19929;-71
2023/09/05 00:42:56;;;;;;;;;;;19.00;99.90;;;;;;5047017;28;19925;-70
2023/09/05 00:45:25;;;;;;;;;;;18.90;99.90;;;;;;5055291;28;19929;-72
2023/09/05 00:47:53;;;;;;;;;;;18.90;99.90;;;;;;5062539;28;19924;-70
2023/09/05 00:50:21;;;;;;;;;;;18.80;99.90;;;;;;5059071;28;19954;-70
2023/09/05 00:52:49;;;;;;;;;;;19.00;99.90;;;;;;5051243;28;19925;-70
2023/09/05 00:55:17;;;;;;;;;;;18.90;99.90;;;;;;5050470;28;19928;-70
2023/09/05 00:57:44;;;;;;;;;;;18.80;99.90;;;;;;5052098;28;19924;-70
2023/09/05 01:00:13;;;;;;;;;;;18.80;99.90;;;;;;5051429;28;19987;-70
2023/09/05 01:02:42;;;;;;;;;;;19.00;99.90;;;;;;5058804;28;19932;-70
2023/09/05 01:05:10;;;;;;;;;;;18.90;99.90;;;;;;5061837;28;19924;-69
2023/09/05 01:07:44;;;;;;;;;;;18.80;99.90;;;;;;5058918;28;19987;-70
2023/09/05 01:10:15;;;;;;;;;;;18.80;99.90;;;;;;5052465;28;19931;-69
2023/09/05 01:12:43;;;;;;;;;;;18.70;99.90;;;;;;5058249;28;19925;-71
2023/09/05 01:15:11;;;;;;;;;;;18.70;99.90;;;;;;5057250;28;19928;-70
2023/09/05 01:17:39;;;;;;;;;;;18.70;99.90;;;;;;5049376;28;19925;-70
2023/09/05 01:20:10;;;;;;;;;;;19.00;99.90;;;;;;5052405;28;20346;-70
2023/09/05 01:22:44;;;;;;;;;;;19.20;99.90;;;;;;5062269;28;19970;-70
2023/09/05 01:25:14;;;;;;;;;;;19.40;99.90;;;;;;5061267;28;19932;-70
2023/09/05 01:27:42;;;;;;;;;;;19.30;99.90;;;;;;5061859;28;19935;-70
2023/09/05 01:30:10;;;;;;;;;;;19.10;99.90;;;;;;5065838;28;19924;-70
2023/09/05 01:32:38;;;;;;;;;;;18.90;99.90;;;;;;5067113;28;19974;-72
2023/09/05 01:35:06;;;;;;;;;;;18.90;99.90;;;;;;5064447;28;19932;-69
2023/09/05 01:37:34;;;;;;;;;;;18.80;99.90;;;;;;5063802;28;19925;-70
2023/09/05 01:40:02;;;;;;;;;;;18.70;99.90;;;;;;5053798;28;20149;-70
2023/09/05 01:42:31;;;;;;;;;;;18.70;99.90;;;;;;5059153;28;19928;-70
2023/09/05 01:44:59;;;;;;;;;;;18.70;99.90;;;;;;5055352;28;19925;-70
2023/09/05 01:47:27;;;;;;;;;;;18.70;99.90;;;;;;5053920;28;19924;-71
2023/09/05 01:49:55;;;;;;;;;;;18.60;99.90;;;;;;5063177;28;19974;-70
2023/09/05 01:52:23;;;;;;;;;;;18.50;99.90;;;;;;5055304;28;20377;-70
2023/09/05 01:54:51;;;;;;;;;;;18.40;99.90;;;;;;5064649;28;19929;-69
2023/09/05 01:57:19;;;;;;;;;;;18.30;99.90;;;;;;5053668;28;19924;-70
2023/09/05 01:59:48;;;;;;;;;;;18.20;99.90;;;;;;5054828;28;19932;-70
2023/09/05 02:02:16;;;;;;;;;;;18.20;99.90;;;;;;5056834;28;19999;-71
2023/09/05 02:04:43;;;;;;;;;;;18.20;99.90;;;;;;5054096;28;20577;-69
2023/09/05 02:07:11;;;;;;;;;;;18.30;99.90;;;;;;5063040;28;19948;-70
2023/09/05 02:09:39;;;;;;;;;;;18.30;99.90;;;;;;5053205;28;19931;-70
2023/09/05 02:12:07;;;;;;;;;;;18.20;99.90;;;;;;5060232;28;19925;-70
2023/09/05 02:14:35;;;;;;;;;;;18.10;99.90;;;;;;5059056;28;19971;-70
2023/09/05 02:17:04;;;;;;;;;;;18.10;99.90;;;;;;5061948;28;19935;-71
2023/09/05 02:19:32;;;;;;;;;;;18.10;99.90;;;;;;5053061;28;19928;-70
2023/09/05 02:21:59;;;;;;;;;;;18.10;99.90;;;;;;5052964;28;19931;-69
2023/09/05 02:24:28;;;;;;;;;;;18.00;99.90;;;;;;5054724;28;19928;-70
2023/09/05 02:26:56;;;;;;;;;;;18.00;99.90;;;;;;5049926;28;19932;-70
2023/09/05 02:29:26;;;;;;;;;;;18.00;99.90;;;;;;5062056;28;19928;-70
2023/09/05 02:31:54;;;;;;;;;;;18.00;99.90;;;;;;5060717;28;19928;-69
2023/09/05 02:34:23;;;;;;;;;;;17.90;99.90;;;;;;5061664;28;19929;-71
2023/09/05 02:36:53;;;;;;;;;;;18.00;99.90;;;;;;5053449;28;19924;-69
2023/09/05 02:39:21;;;;;;;;;;;17.90;99.90;;;;;;5046114;28;19931;-69
2023/09/05 02:41:49;;;;;;;;;;;17.90;99.90;;;;;;5052615;28;19929;-70
2023/09/05 02:44:17;;;;;;;;;;;17.90;99.90;;;;;;5048730;28;19924;-69
2023/09/05 02:46:45;;;;;;;;;;;17.90;99.90;;;;;;5057557;28;19947;-70
2023/09/05 02:49:13;;;;;;;;;;;17.90;99.90;;;;;;5060755;28;19933;-69
2023/09/05 02:51:42;;;;;;;;;;;18.00;99.90;;;;;;5060228;28;19936;-71
2023/09/05 02:54:09;;;;;;;;;;;18.00;99.90;;;;;;5054656;28;19970;-70
2023/09/05 02:56:37;;;;;;;;;;;18.10;99.90;;;;;;5059168;28;19932;-70
2023/09/05 02:59:05;;;;;;;;;;;18.00;99.90;;;;;;5048673;28;20381;-70
2023/09/05 03:01:33;;;;;;;;;;;18.10;99.90;;;;;;5052662;28;19925;-70
2023/09/05 03:04:01;;;;;;;;;;;18.10;99.90;;;;;;5053184;28;20407;-71
2023/09/05 03:06:29;;;;;;;;;;;18.10;99.90;;;;;;5059202;28;19925;-71
2023/09/05 03:08:58;;;;;;;;;;;18.00;99.90;;;;;;5060652;28;20322;-69
2023/09/05 03:11:26;;;;;;;;;;;18.00;99.90;;;;;;5049769;28;19932;-74
2023/09/05 03:13:54;;;;;;;;;;;18.00;99.90;;;;;;5048833;28;20407;-70
2023/09/05 03:16:23;;;;;;;;;;;18.00;99.90;;;;;;5043422;28;19936;-72
2023/09/05 03:18:51;;;;;;;;;;;18.10;99.90;;;;;;5060011;28;19935;-70
2023/09/05 03:21:19;;;;;;;;;;;18.30;99.90;;;;;;5055034;28;19994;-70
2023/09/05 03:23:48;;;;;;;;;;;18.60;99.90;;;;;;5063447;28;20492;-70
2023/09/05 03:26:18;;;;;;;;;;;18.80;99.90;;;;;;5059870;28;19936;-70
2023/09/05 03:28:47;;;;;;;;;;;18.80;99.90;;;;;;5052450;28;19925;-70
2023/09/05 03:31:15;;;;;;;;;;;18.70;99.90;;;;;;5059811;28;20039;-71
2023/09/05 03:33:43;;;;;;;;;;;18.90;99.90;;;;;;5052523;28;19978;-71
2023/09/05 03:36:11;;;;;;;;;;;18.80;99.90;;;;;;5061179;28;20465;-70
2023/09/05 03:38:39;;;;;;;;;;;18.60;99.90;;;;;;5057737;28;19928;-72
2023/09/05 03:41:06;;;;;;;;;;;18.60;99.90;;;;;;5061002;28;19931;-70
2023/09/05 03:43:36;;;;;;;;;;;18.90;99.90;;;;;;5058550;28;19936;-70
2023/09/05 03:46:03;;;;;;;;;;;19.10;99.90;;;;;;5051503;28;19924;-69
2023/09/05 03:48:31;;;;;;;;;;;19.40;99.90;;;;;;5052354;28;20012;-70
2023/09/05 03:50:59;;;;;;;;;;;19.40;99.90;;;;;;5045153;28;19970;-70
2023/09/05 03:53:27;;;;;;;;;;;19.40;99.90;;;;;;5059194;28;19932;-70
2023/09/05 03:55:56;;;;;;;;;;;19.40;99.90;;;;;;5059330;28;19998;-72
2023/09/05 03:58:23;;;;;;;;;;;19.40;99.90;;;;;;5054662;28;20280;-70
2023/09/05 04:00:55;;;;;;;;;;;19.40;99.90;;;;;;5067205;28;19925;-70
2023/09/05 04:03:23;;;;;;;;;;;19.40;99.90;;;;;;5059475;28;20384;-71
2023/09/05 04:05:52;;;;;;;;;;;19.30;99.90;;;;;;5066947;28;19924;-69
2023/09/05 04:08:20;;;;;;;;;;;19.40;99.90;;;;;;5045565;28;19933;-70
2023/09/05 04:10:48;;;;;;;;;;;19.20;99.90;;;;;;5057884;28;20383;-69
2023/09/05 04:13:15;;;;;;;;;;;19.20;99.90;;;;;;5060563;28;19928;-69
2023/09/05 04:15:43;;;;;;;;;;;19.30;99.90;;;;;;5048751;28;19924;-71
2023/09/05 04:18:12;;;;;;;;;;;19.30;99.90;;;;;;5038060;28;19933;-71
2023/09/05 04:20:40;;;;;;;;;;;19.20;99.90;;;;;;5036057;28;20490;-69
2023/09/05 04:23:08;;;;;;;;;;;19.40;99.90;;;;;;5037471;28;19952;-70
2023/09/05 04:25:40;;;;;;;;;;;19.50;99.90;;;;;;5038361;28;20766;-70
2023/09/05 04:28:08;;;;;;;;;;;19.50;99.90;;;;;;5035463;28;19956;-71
2023/09/05 04:30:36;;;;;;;;;;;19.50;99.90;;;;;;5037608;28;20002;-70
2023/09/05 04:33:06;;;;;;;;;;;19.40;99.90;;;;;;5038242;28;19932;-70
2023/09/05 04:35:38;;;;;;;;;;;19.20;99.90;;;;;;5037339;28;19933;-70
2023/09/05 04:38:06;;;;;;;;;;;19.00;99.90;;;;;;5034839;28;20299;-69
2023/09/05 04:40:34;;;;;;;;;;;18.90;99.90;;;;;;5036211;28;19933;-70
2023/09/05 04:43:03;;;;;;;;;;;18.70;99.90;;;;;;5038331;28;19940;-71
2023/09/05 04:45:31;;;;;;;;;;;18.60;99.90;;;;;;5038645;28;19939;-69
2023/09/05 04:47:59;;;;;;;;;;;18.40;99.90;;;;;;5035519;28;19970;-68
2023/09/05 04:50:26;;;;;;;;;;;18.30;99.90;;;;;;5037697;28;20049;-71
2023/09/05 04:52:56;;;;;;;;;;;18.20;99.90;;;;;;5038430;28;19932;-68
2023/09/05 04:55:25;;;;;;;;;;;18.10;99.90;;;;;;5041237;28;19936;-69
2023/09/05 04:57:53;;;;;;;;;;;18.00;99.90;;;;;;5040547;28;20019;-70
2023/09/05 05:00:23;;;;;;;;;;;18.00;99.90;;;;;;5037393;28;19933;-70
2023/09/05 05:02:51;;;;;;;;;;;17.80;99.90;;;;;;5038545;28;20428;-68
2023/09/05 05:05:19;;;;;;;;;;;17.70;99.90;;;;;;5039422;28;19940;-70
2023/09/05 05:07:47;;;;;;;;;;;17.70;99.90;;;;;;5040335;28;19936;-70
2023/09/05 05:10:16;;;;;;;;;;;17.70;99.90;;;;;;5041513;28;19932;-68
2023/09/05 05:12:44;;;;;;;;;;;18.00;99.90;;;;;;5040865;28;19978;-70
2023/09/05 05:15:11;;;;;;;;;;;17.80;99.90;;;;;;5042106;28;20891;-70
2023/09/05 05:17:39;;;;;;;;;;;17.90;99.90;;;;;;5038663;28;19940;-69
2023/09/05 05:20:08;;;;;;;;;;;17.80;99.90;;;;;;5041111;28;20375;-71
2023/09/05 05:22:36;;;;;;;;;;;17.80;99.90;;;;;;5041414;28;20051;-70
2023/09/05 05:25:07;;;;;;;;;;;18.00;99.90;;;;;;5042107;28;19932;-68
2023/09/05 05:27:36;;;;;;;;;;;18.00;99.90;;;;;;5039438;28;19936;-69
2023/09/05 05:30:05;;;;;;;;;;;18.20;99.90;;;;;;5039462;28;19936;-68
2023/09/05 05:32:33;;;;;;;;;;;18.20;99.90;;;;;;5041411;28;20042;-69
2023/09/05 05:35:01;;;;;;;;;;;18.30;99.90;;;;;;5040880;28;20509;-69
2023/09/05 05:37:29;;;;;;;;;;;18.30;99.90;;;;;;5040192;28;20448;-70
2023/09/05 05:39:57;;;;;;;;;;;18.30;99.90;;;;;;5040445;28;19932;-69
2023/09/05 05:42:24;;;;;;;;;;;18.20;99.90;;;;;;5042463;28;19932;-69
2023/09/05 05:44:54;;;;;;;;;;;18.20;99.90;;;;;;5039124;28;19933;-70
2023/09/05 05:47:22;;;;;;;;;;;18.30;99.90;;;;;;5038434;28;21127;-69
2023/09/05 05:49:50;;;;;;;;;;;18.20;99.90;;;;;;5040081;28;19937;-69
2023/09/05 05:52:18;;;;;;;;;;;18.20;99.90;;;;;;5041081;28;19928;-69
2023/09/05 05:54:46;;;;;;;;;;;18.30;99.90;;;;;;5039787;28;19925;-69
2023/09/05 05:57:13;;;;;;;;;;;18.30;99.90;;;;;;5038390;28;19933;-69
2023/09/05 05:59:41;;;;;;;;;;;18.40;99.90;;;;;;5040213;28;19978;-70
2023/09/05 06:02:10;;;;;;;;;;;18.40;99.90;;;;;;5040539;28;19939;-69
2023/09/05 06:04:38;;;;;;;;;;;18.40;99.90;;;;;;5040842;28;19990;-69
2023/09/05 06:07:06;;;;;;;;;;;18.50;99.90;;;;;;5039339;28;20103;-69
2023/09/05 06:09:34;;;;;;;;;;;18.60;99.90;;;;;;5040010;28;19940;-70
2023/09/05 06:12:01;;;;;;;;;;;18.60;99.90;;;;;;5040477;28;19937;-70
2023/09/05 06:14:29;;;;;;;;;;;18.70;99.90;;;;;;5040131;28;19928;-70
2023/09/05 06:16:57;;;;;;;;;;;18.80;99.90;;;;;;5038044;28;19933;-70
2023/09/05 06:19:27;;;;;;;;;;;18.90;99.90;;;;;;5045250;28;20482;-70
2023/09/05 06:21:56;;;;;;;;;;;19.00;99.90;;;;;;5043039;28;19925;-69
2023/09/05 06:24:24;;;;;;;;;;;19.00;99.90;;;;;;5041566;28;20410;-70
2023/09/05 06:26:51;;;;;;;;;;;19.10;99.90;;;;;;5048288;28;19929;-67
2023/09/05 06:29:19;;;;;;;;;;;19.20;99.90;;;;;;5045322;28;19932;-67
2023/09/05 06:31:48;;;;;;;;;;;19.40;99.90;;;;;;5049452;28;20166;-67
2023/09/05 06:34:16;;;;;;;;;;;19.50;99.90;;;;;;5061511;28;20414;-66
2023/09/05 06:36:46;;;;;;;;;;;19.50;99.90;;;;;;5060759;28;19929;-67
2023/09/05 06:39:13;;;;;;;;;;;19.60;99.90;;;;;;5044489;28;19925;-67
2023/09/05 06:41:41;;;;;;;;;;;19.70;99.90;;;;;;5046332;28;19924;-67
2023/09/05 06:44:09;;;;;;;;;;;19.80;99.90;;;;;;5060619;28;19924;-67
2023/09/05 06:46:37;;;;;;;;;;;19.90;99.90;;;;;;5053379;28;19925;-67
2023/09/05 06:49:05;;;;;;;;;;;19.90;99.90;;;;;;5060944;28;20454;-67
2023/09/05 06:51:33;;;;;;;;;;;20.00;99.90;;;;;;5052512;28;20411;-67
2023/09/05 06:54:02;;;;;;;;;;;20.10;99.90;;;;;;5047069;28;20024;-68
2023/09/05 06:56:30;;;;;;;;;;;20.10;99.90;;;;;;5053037;28;20334;-67
2023/09/05 06:58:57;;;;;;;;;;;20.20;99.90;;;;;;5058534;28;19936;-67
2023/09/05 07:01:29;;;;;;;;;;;20.20;99.90;;;;;;5060481;28;19928;-68
2023/09/05 07:03:57;;;;;;;;;;;20.20;99.90;;;;;;5052771;28;19925;-67
2023/09/05 07:06:24;;;;;;;;;;;20.20;99.90;;;;;;5053492;28;19925;-67
2023/09/05 07:08:52;;;;;;;;;;;20.30;99.90;;;;;;5059318;28;19925;-67
2023/09/05 07:11:21;;;;;;;;;;;20.30;99.90;;;;;;5054180;28;19932;-68
2023/09/05 07:13:49;;;;;;;;;;;20.40;99.90;;;;;;5051895;28;20414;-67
2023/09/05 07:16:17;;;;;;;;;;;20.40;99.90;;;;;;5052536;28;19924;-67
2023/09/05 07:18:45;;;;;;;;;;;20.40;99.90;;;;;;5044376;28;19925;-67
2023/09/05 07:21:13;;;;;;;;;;;20.40;99.90;;;;;;5052181;28;19925;-67
2023/09/05 07:23:41;;;;;;;;;;;20.50;99.90;;;;;;5044874;28;20011;-67
2023/09/05 07:26:09;;;;;;;;;;;20.50;99.90;;;;;;5060579;28;20384;-67
2023/09/05 07:28:38;;;;;;;;;;;20.60;99.90;;;;;;5060021;28;19981;-68
2023/09/05 07:31:06;;;;;;;;;;;20.70;99.90;;;;;;5052215;28;19925;-67
2023/09/05 07:33:34;;;;;;;;;;;20.80;99.90;;;;;;5053842;28;19925;-67
2023/09/05 07:36:02;;;;;;;;;;;20.90;99.90;;;;;;5058068;28;19925;-67
2023/09/05 07:38:29;;;;;;;;;;;20.90;99.90;;;;;;5050846;28;19925;-67
2023/09/05 07:41:09;;;;;;;;;;;21.00;99.90;;;;;;5056893;28;19925;-68
2023/09/05 07:43:38;;;;;;;;;;;21.00;99.90;;;;;;5055016;28;19947;-67
2023/09/05 07:46:06;;;;;;;;;;;21.20;99.90;;;;;;5063719;28;20387;-67
2023/09/05 07:48:34;;;;;;;;;;;21.30;99.90;;;;;;5053248;28;19932;-67
2023/09/05 07:51:03;;;;;;;;;;;21.40;99.90;;;;;;5055763;28;19929;-68
2023/09/05 07:53:32;;;;;;;;;;;21.50;99.90;;;;;;5048969;28;20000;-67
2023/09/05 07:56:00;;;;;;;;;;;21.70;99.90;;;;;;5051855;28;19925;-67
2023/09/05 07:58:28;;;;;;;;;;;21.90;99.90;;;;;;5059480;28;19925;-68
2023/09/05 08:00:58;;;;;;;;;;;22.00;99.90;;;;;;5051504;28;19925;-68
2023/09/05 08:03:26;;;;;;;;;;;22.10;99.90;;;;;;5051763;28;19925;-67
2023/09/05 08:05:54;;;;;;;;;;;22.20;99.90;;;;;;5059094;28;20375;-67
2023/09/05 08:08:23;;;;;;;;;;;22.20;99.90;;;;;;5051185;28;19928;-70
2023/09/05 08:10:53;;;;;;;;;;;22.20;99.90;;;;;;5051256;28;21315;-68
2023/09/05 08:13:21;;;;;;;;;;;22.40;99.90;;;;;;5059683;28;19971;-67
2023/09/05 08:15:50;;;;;;;;;;;22.30;99.90;;;;;;5043511;28;19924;-67
2023/09/05 08:18:20;;;;;;;;;;;22.40;99.90;;;;;;5059610;28;20327;-67
2023/09/05 08:20:48;;;;;;;;;;;22.60;99.90;;;;;;5051241;28;19932;-67
2023/09/05 08:23:15;;;;;;;;;;;22.60;99.90;;;;;;5051491;28;20374;-68
2023/09/05 08:25:51;;;;;;;;;;;22.80;99.90;;;;;;5051776;28;19929;-67
2023/09/05 08:28:19;;;;;;;;;;;22.90;99.90;;;;;;5051114;28;19929;-66
2023/09/05 08:30:47;;;;;;;;;;;23.20;99.90;;;;;;5058999;28;19925;-67
2023/09/05 08:33:14;;;;;;;;;;;23.20;99.90;;;;;;5059519;28;19925;-67
2023/09/05 08:35:44;;;;;;;;;;;23.30;99.90;;;;;;5053843;28;19928;-67
2023/09/05 08:38:12;;;;;;;;;;;23.40;99.90;;;;;;5056745;28;19925;-70
2023/09/05 08:40:41;;;;;;;;;;;23.60;99.90;;;;;;5045279;28;19932;-67
2023/09/05 08:43:09;;;;;;;;;;;23.70;99.90;;;;;;5059881;28;20036;-67
2023/09/05 08:45:37;;;;;;;;;;;23.70;99.90;;;;;;5051375;28;19931;-68
2023/09/05 08:48:06;;;;;;;;;;;23.90;99.90;;;;;;5059567;28;19925;-67
2023/09/05 08:50:36;;;;;;;;;;;24.10;99.90;;;;;;5051070;28;20276;-67
2023/09/05 08:53:10;;;;;;;;;;;24.20;99.90;;;;;;5051003;28;19951;-67
2023/09/05 08:55:39;;;;;;;;;;;24.40;99.90;;;;;;5043482;28;19929;-68
2023/09/05 08:58:08;;;;;;;;;;;24.50;99.90;;;;;;5051180;28;19952;-67
2023/09/05 09:00:36;;;;;;;;;;;24.70;99.90;;;;;;5051249;28;19925;-67
2023/09/05 09:03:05;;;;;;;;;;;24.80;99.90;;;;;;5059183;28;19940;-68
2023/09/05 09:05:35;;;;;;;;;;;25.10;99.90;;;;;;5059328;28;19936;-67
2023/09/05 09:08:03;;;;;;;;;;;25.00;99.90;;;;;;5051665;28;20413;-67
2023/09/05 09:10:32;;;;;;;;;;;25.00;99.90;;;;;;5058981;28;19925;-68
2023/09/05 09:13:13;;;;;;;;;;;25.00;99.90;;;;;;5050357;28;19928;-68
2023/09/05 09:15:43;;;;;;;;;;;25.10;99.90;;;;;;5059127;28;19929;-67
2023/09/05 09:18:11;;;;;;;;;;;25.20;99.90;;;;;;5050932;28;19932;-68
2023/09/05 09:20:42;;;;;;;;;;;25.40;99.90;;;;;;5059856;28;19925;-68
2023/09/05 09:23:10;;;;;;;;;;;25.60;99.90;;;;;;5051090;28;20406;-68
2023/09/05 09:25:47;;;;;;;;;;;25.70;99.90;;;;;;5050605;28;20341;-68
2023/09/05 09:28:22;;;;;;;;;;;25.80;99.90;;;;;;5051165;28;20387;-67
2023/09/05 09:30:57;;;;;;;;;;;26.00;99.90;;;;;;5050169;28;19940;-67
2023/09/05 09:33:25;;;;;;;;;;;26.20;99.90;;;;;;5058235;28;19935;-67
2023/09/05 09:36:02;;;;;;;;;;;26.20;99.90;;;;;;5050755;28;19967;-67
2023/09/05 09:38:30;;;;;;;;;;;26.40;99.90;;;;;;5058913;28;19931;-67
2023/09/05 09:41:00;;;;;;;;;;;26.50;99.90;;;;;;5060442;28;19931;-67
2023/09/05 09:43:28;;;;;;;;;;;26.40;99.90;;;;;;5062446;28;19936;-67
2023/09/05 09:45:57;;;;;;;;;;;26.60;99.90;;;;;;5060947;28;20410;-67
2023/09/05 09:48:26;;;;;;;;;;;26.70;99.90;;;;;;5054161;28;19982;-67
2023/09/05 09:50:55;;;;;;;;;;;26.90;99.90;;;;;;5061964;28;20353;-67
2023/09/05 09:53:29;;;;;;;;;;;26.90;99.80;;;;;;5053880;28;19936;-68
2023/09/05 09:55:57;;;;;;;;;;;27.10;99.70;;;;;;5053922;28;19924;-68
2023/09/05 09:58:27;;;;;;;;;;;27.10;99.10;;;;;;5062351;28;20362;-67
2023/09/05 10:00:56;;;;;;;;;;;27.20;99.50;;;;;;5060830;28;20019;-67
2023/09/05 10:03:25;;;;;;;;;;;27.40;99.70;;;;;;5062067;28;19978;-67
2023/09/05 10:05:55;;;;;;;;;;;27.20;98.90;;;;;;5062023;28;20023;-67
2023/09/05 10:08:23;;;;;;;;;;;27.30;99.50;;;;;;5052701;28;20387;-67
2023/09/05 10:10:51;;;;;;;;;;;27.60;98.80;;;;;;5052280;28;19925;-67
2023/09/05 10:13:21;;;;;;;;;;;27.40;98.30;;;;;;5053452;28;19925;-67
2023/09/05 10:15:51;;;;;;;;;;;27.50;98.40;;;;;;5049983;28;19924;-68
2023/09/05 10:18:19;;;;;;;;;;;27.40;98.10;;;;;;5061960;28;19948;-67
2023/09/05 10:20:48;;;;;;;;;;;27.40;97.50;;;;;;5054617;28;19932;-67
2023/09/05 10:23:17;;;;;;;;;;;27.40;98.10;;;;;;5059294;28;19932;-67
2023/09/05 10:25:46;;;;;;;;;;;27.60;98.30;;;;;;5053202;28;19925;-67
2023/09/05 10:28:14;;;;;;;;;;;27.90;97.90;;;;;;5061782;28;19940;-67
2023/09/05 10:30:46;;;;;;;;;;;28.10;96.80;;;;;;5060805;28;20012;-67
2023/09/05 10:33:15;;;;;;;;;;;28.20;96.90;;;;;;5058535;28;19932;-67
2023/09/05 10:35:44;;;;;;;;;;;28.60;97.90;;;;;;5056684;28;20400;-67
2023/09/05 10:38:13;;;;;;;;;;;28.90;97.00;;;;;;5059960;28;20015;-67
2023/09/05 10:40:41;;;;;;;;;;;28.90;95.60;;;;;;5061021;28;19928;-67
2023/09/05 10:43:15;;;;;;;;;;;28.90;95.00;;;;;;5061326;28;19982;-67
2023/09/05 10:45:43;;;;;;;;;;;29.10;95.40;;;;;;5061952;28;20450;-68
2023/09/05 10:48:12;;;;;;;;;;;29.20;95.60;;;;;;5050947;28;20020;-66
2023/09/05 10:50:59;;;;;;;;;;;29.10;95.40;;;;;;5052595;28;20015;-67
2023/09/05 10:53:28;;;;;;;;;;;29.10;95.10;;;;;;5047209;28;19929;-67
2023/09/05 10:55:56;;;;;;;;;;;28.90;94.90;;;;;;5054984;28;19968;-67
2023/09/05 10:58:46;;;;;;;;;;;28.60;95.20;;;;;;5058440;28;19948;-67
2023/09/05 11:01:32;;;;;;;;;;;28.50;95.00;;;;;;5045938;28;19936;-69
2023/09/05 11:04:03;;;;;;;;;;;28.50;94.50;;;;;;5063641;28;19932;-67
2023/09/05 11:06:31;;;;;;;;;;;28.30;94.10;;;;;;5057159;28;19979;-67
2023/09/05 11:09:04;;;;;;;;;;;28.50;94.70;;;;;;5055378;28;19939;-67
2023/09/05 11:11:32;;;;;;;;;;;28.60;94.80;;;;;;5056938;28;20311;-67
2023/09/05 11:14:00;;;;;;;;;;;29.00;94.10;;;;;;5052459;28;20308;-67
2023/09/05 11:16:28;;;;;;;;;;;29.10;93.40;;;;;;5054426;28;19924;-67
2023/09/05 11:18:56;;;;;;;;;;;29.00;93.10;;;;;;5051139;28;19932;-67
2023/09/05 11:21:25;;;;;;;;;;;28.90;92.70;;;;;;5061813;28;19929;-67
2023/09/05 11:23:53;;;;;;;;;;;28.90;93.60;;;;;;5051723;28;20402;-68
2023/09/05 11:26:22;;;;;;;;;;;29.00;93.30;;;;;;5052255;28;20361;-67
2023/09/05 11:28:51;;;;;;;;;;;29.20;92.60;;;;;;5052123;28;19925;-68
2023/09/05 11:31:21;;;;;;;;;;;29.30;92.50;;;;;;5050708;28;19932;-67
2023/09/05 11:33:49;;;;;;;;;;;29.40;91.80;;;;;;5058198;28;19924;-67
2023/09/05 11:36:17;;;;;;;;;;;29.30;92.20;;;;;;5060305;28;19925;-67
2023/09/05 11:38:46;;;;;;;;;;;29.50;92.90;;;;;;5051826;28;20288;-67
2023/09/05 11:41:14;;;;;;;;;;;29.80;92.20;;;;;;5060239;28;20350;-67
2023/09/05 11:43:47;;;;;;;;;;;30.10;92.50;;;;;;5060126;28;20319;-68
2023/09/05 11:46:15;;;;;;;;;;;30.10;91.70;;;;;;5044635;28;19972;-67
2023/09/05 11:48:43;;;;;;;;;;;30.10;90.80;;;;;;5058475;28;20311;-68
2023/09/05 11:51:14;;;;;;;;;;;30.10;91.10;;;;;;5059945;28;19928;-67
2023/09/05 11:53:42;;;;;;;;;;;30.10;90.20;;;;;;5051794;28;19925;-67
2023/09/05 11:56:10;;;;;;;;;;;30.10;91.00;;;;;;5051815;28;19928;-68
2023/09/05 11:58:38;;;;;;;;;;;30.30;90.20;;;;;;5051817;28;19924;-68
2023/09/05 12:01:07;;;;;;;;;;;30.30;89.90;;;;;;5059719;28;19925;-68
2023/09/05 12:03:35;;;;;;;;;;;30.30;89.80;;;;;;5050080;28;19929;-68
2023/09/05 12:06:03;;;;;;;;;;;30.50;89.30;;;;;;5059730;28;20383;-68
2023/09/05 12:08:34;;;;;;;;;;;30.70;89.70;;;;;;5058187;28;19924;-68
2023/09/05 12:11:06;;;;;;;;;;;30.60;89.90;;;;;;5054917;28;19932;-68
2023/09/05 12:13:37;;;;;;;;;;;30.50;90.40;;;;;;5056248;28;19964;-67
2023/09/05 12:16:08;;;;;;;;;;;30.60;90.10;;;;;;5059432;28;19932;-68
2023/09/05 12:18:37;;;;;;;;;;;30.60;90.90;;;;;;5043893;28;19925;-68
2023/09/05 12:21:08;;;;;;;;;;;30.70;90.10;;;;;;5059181;28;20366;-68
2023/09/05 12:23:36;;;;;;;;;;;31.10;90.50;;;;;;5051234;28;19924;-67
2023/09/05 12:26:04;;;;;;;;;;;31.40;89.10;;;;;;5053338;28;19929;-68
2023/09/05 12:28:32;;;;;;;;;;;31.50;89.20;;;;;;5056760;28;19932;-68
2023/09/05 12:31:08;;;;;;;;;;;31.90;90.00;;;;;;5059482;28;19933;-68
2023/09/05 12:33:36;;;;;;;;;;;31.60;88.30;;;;;;5049575;28;19924;-67
2023/09/05 12:36:04;;;;;;;;;;;31.30;86.90;;;;;;5059167;28;20443;-67
2023/09/05 12:38:32;;;;;;;;;;;30.90;88.00;;;;;;5051303;28;19971;-67
2023/09/05 12:41:00;;;;;;;;;;;31.10;90.10;;;;;;5059303;28;19925;-67
2023/09/05 12:43:28;;;;;;;;;;;31.10;88.40;;;;;;5059142;28;19929;-67
2023/09/05 12:45:55;;;;;;;;;;;31.40;87.70;;;;;;5059159;28;19924;-68
2023/09/05 12:48:25;;;;;;;;;;;31.70;88.70;;;;;;5053336;28;19929;-68
2023/09/05 12:50:55;;;;;;;;;;;32.10;87.50;;;;;;5059169;28;19925;-67
2023/09/05 12:53:23;;;;;;;;;;;32.60;85.10;;;;;;5050977;28;19925;-68
2023/09/05 12:55:51;;;;;;;;;;;32.80;84.60;;;;;;5050713;28;19978;-68
2023/09/05 12:58:19;;;;;;;;;;;32.30;85.90;;;;;;5055316;28;19924;-67
2023/09/05 13:00:47;;;;;;;;;;;32.30;85.90;;;;;;5062743;28;19925;-67
2023/09/05 13:03:15;;;;;;;;;;;32.50;84.30;;;;;;5042214;28;20012;-67
2023/09/05 13:05:44;;;;;;;;;;;32.20;85.50;;;;;;5050689;28;19925;-68
2023/09/05 13:08:11;;;;;;;;;;;32.30;85.10;;;;;;5050807;28;20319;-68
2023/09/05 13:10:39;;;;;;;;;;;32.80;84.70;;;;;;5050979;28;19932;-67
2023/09/05 13:13:08;;;;;;;;;;;32.70;84.20;;;;;;5061304;28;19925;-68
2023/09/05 13:15:37;;;;;;;;;;;32.60;83.50;;;;;;5057777;28;19925;-68
2023/09/05 13:18:05;;;;;;;;;;;33.00;83.90;;;;;;5061971;28;19944;-68
2023/09/05 13:20:33;;;;;;;;;;;32.90;83.50;;;;;;5052969;28;20010;-68
2023/09/05 13:23:02;;;;;;;;;;;32.80;83.20;;;;;;5053990;28;19929;-68
2023/09/05 13:25:32;;;;;;;;;;;32.80;83.10;;;;;;5054528;28;19925;-68
2023/09/05 13:28:04;;;;;;;;;;;33.30;83.30;;;;;;5062819;28;19929;-68
2023/09/05 13:30:32;;;;;;;;;;;33.40;82.20;;;;;;5060355;28;20291;-67
2023/09/05 13:33:00;;;;;;;;;;;33.20;81.00;;;;;;5055684;28;19940;-68
2023/09/05 13:35:31;;;;;;;;;;;33.20;81.50;;;;;;5059195;28;19978;-68
2023/09/05 13:37:59;;;;;;;;;;;33.40;81.00;;;;;;5056796;28;19925;-65
2023/09/05 13:40:28;;;;;;;;;;;33.30;80.10;;;;;;5062665;28;19924;-65
2023/09/05 13:42:56;;;;;;;;;;;32.90;80.70;;;;;;5062107;28;20004;-65
2023/09/05 13:45:24;;;;;;;;;;;32.80;81.60;;;;;;5058651;28;19925;-65
2023/09/05 13:47:52;;;;;;;;;;;32.70;81.20;;;;;;5056677;28;19925;-65
2023/09/05 13:50:21;;;;;;;;;;;32.80;81.30;;;;;;5054155;28;19929;-65
2023/09/05 13:52:49;;;;;;;;;;;33.20;83.20;;;;;;5053899;28;20338;-65
2023/09/05 13:55:17;;;;;;;;;;;33.20;79.70;;;;;;5056955;28;20402;-65
2023/09/05 13:57:48;;;;;;;;;;;33.00;78.40;;;;;;5051861;28;19936;-65
2023/09/05 14:00:18;;;;;;;;;;;32.90;77.90;;;;;;5053719;28;19924;-65
2023/09/05 14:02:47;;;;;;;;;;;33.10;78.80;;;;;;5060416;28;20405;-65
2023/09/05 14:05:15;;;;;;;;;;;33.10;78.40;;;;;;5061962;28;20031;-65
2023/09/05 14:07:43;;;;;;;;;;;33.20;80.20;;;;;;5060330;28;20027;-65
2023/09/05 14:10:13;;;;;;;;;;;33.10;78.70;;;;;;5054646;28;20024;-65
2023/09/05 14:12:41;;;;;;;;;;;33.20;79.10;;;;;;5061902;28;19931;-65
2023/09/05 14:15:10;;;;;;;;;;;33.20;77.80;;;;;;5061748;28;19929;-65
2023/09/05 14:17:38;;;;;;;;;;;33.30;78.10;;;;;;5061876;28;20021;-65
2023/09/05 14:20:07;;;;;;;;;;;33.70;78.00;;;;;;5045653;28;19933;-65
2023/09/05 14:22:34;;;;;;;;;;;33.80;75.80;;;;;;5053281;28;19932;-65
2023/09/05 14:25:02;;;;;;;;;;;34.10;76.50;;;;;;5061613;28;19971;-65